sensor_id;sensor_type;location;lat;lon;timestamp;pressure;altitude;pressure_sealevel;temperature;humidity
22753;BME280;11543;43.144;24.684;2023-04-27T00:01:44;98558.41;;;11.24;83.84
22753;BME280;11543;43.144;24.684;2023-04-27T00:04:10;98555.91;;;11.22;84.22
22753;BME280;11543;43.144;24.684;2023-04-27T00:06:38;98561.25;;;11.22;84.16
22753;BME280;11543;43.144;24.684;2023-04-27T00:09:03;98553.88;;;11.16;84.69
22753;BME280;11543;43.144;24.684;2023-04-27T00:11:29;98567.13;;;11.17;84.72
22753;BME280;11543;43.144;24.684;2023-04-27T00:13:55;98556.88;;;11.05;84.73
22753;BME280;11543;43.144;24.684;2023-04-27T00:16:20;98558.41;;;11.07;84.88
22753;BME280;11543;43.144;24.684;2023-04-27T00:18:46;98564.59;;;11.08;85.07
22753;BME280;11543;43.144;24.684;2023-04-27T00:21:11;98564.59;;;11.08;84.68
22753;BME280;11543;43.144;24.684;2023-04-27T00:23:37;98559.91;;;11.02;84.97
22753;BME280;11543;43.144;24.684;2023-04-27T00:26:02;98567.97;;;11.10;85.18
22753;BME280;11543;43.144;24.684;2023-04-27T00:28:28;98559.22;;;11.08;84.87
22753;BME280;11543;43.144;24.684;2023-04-27T00:30:53;98574.31;;;11.01;85.71
22753;BME280;11543;43.144;24.684;2023-04-27T00:33:19;98570.78;;;10.92;85.71
22753;BME280;11543;43.144;24.684;2023-04-27T00:35:45;98564.38;;;10.85;86.18
22753;BME280;11543;43.144;24.684;2023-04-27T00:38:12;98569.25;;;10.90;86.35
22753;BME280;11543;43.144;24.684;2023-04-27T00:40:38;98571.63;;;10.93;86.01
22753;BME280;11543;43.144;24.684;2023-04-27T00:43:03;98573.31;;;11.02;86.08
22753;BME280;11543;43.144;24.684;2023-04-27T00:45:29;98569.28;;;10.98;85.94
22753;BME280;11543;43.144;24.684;2023-04-27T00:47:55;98566.09;;;11.02;86.01
22753;BME280;11543;43.144;24.684;2023-04-27T00:50:27;98571.00;;;11.15;86.09
22753;BME280;11543;43.144;24.684;2023-04-27T00:52:54;98578.72;;;11.26;85.89
22753;BME280;11543;43.144;24.684;2023-04-27T00:55:21;98569.03;;;11.33;85.49
22753;BME280;11543;43.144;24.684;2023-04-27T00:57:47;98562.66;;;11.42;84.97
22753;BME280;11543;43.144;24.684;2023-04-27T01:00:13;98573.91;;;11.62;84.26
22753;BME280;11543;43.144;24.684;2023-04-27T01:02:39;98573.22;;;11.68;83.67
22753;BME280;11543;43.144;24.684;2023-04-27T01:05:04;98570.72;;;11.67;83.51
22753;BME280;11543;43.144;24.684;2023-04-27T01:07:30;98576.94;;;11.67;83.24
22753;BME280;11543;43.144;24.684;2023-04-27T01:09:56;98572.06;;;11.71;82.89
22753;BME280;11543;43.144;24.684;2023-04-27T01:12:21;98571.38;;;11.77;82.84
22753;BME280;11543;43.144;24.684;2023-04-27T01:14:47;98578.28;;;11.88;82.36
22753;BME280;11543;43.144;24.684;2023-04-27T01:17:12;98572.75;;;11.89;82.21
22753;BME280;11543;43.144;24.684;2023-04-27T01:19:38;98582.63;;;11.97;81.78
22753;BME280;11543;43.144;24.684;2023-04-27T01:22:04;98577.75;;;12.00;81.47
22753;BME280;11543;43.144;24.684;2023-04-27T01:24:31;98571.72;;;11.98;81.36
22753;BME280;11543;43.144;24.684;2023-04-27T01:26:57;98576.41;;;12.04;81.01
22753;BME280;11543;43.144;24.684;2023-04-27T01:29:22;98570.50;;;12.09;80.64
22753;BME280;11543;43.144;24.684;2023-04-27T01:31:48;98573.19;;;12.09;80.52
22753;BME280;11543;43.144;24.684;2023-04-27T01:34:13;98576.38;;;12.12;80.32
22753;BME280;11543;43.144;24.684;2023-04-27T01:36:39;98574.41;;;12.15;80.26
22753;BME280;11543;43.144;24.684;2023-04-27T01:39:04;98578.94;;;12.14;80.08
22753;BME280;11543;43.144;24.684;2023-04-27T01:41:34;98581.09;;;12.10;79.68
22753;BME280;11543;43.144;24.684;2023-04-27T01:44:00;98581.28;;;12.09;79.61
22753;BME280;11543;43.144;24.684;2023-04-27T01:46:26;98580.78;;;12.05;79.54
22753;BME280;11543;43.144;24.684;2023-04-27T01:48:51;98579.78;;;11.98;79.44
22753;BME280;11543;43.144;24.684;2023-04-27T01:51:17;98585.16;;;11.98;79.28
22753;BME280;11543;43.144;24.684;2023-04-27T01:53:42;98587.69;;;12.00;79.24
22753;BME280;11543;43.144;24.684;2023-04-27T01:56:08;98580.13;;;11.87;79.38
22753;BME280;11543;43.144;24.684;2023-04-27T01:58:34;98594.25;;;11.89;79.19
22753;BME280;11543;43.144;24.684;2023-04-27T02:01:00;98575.41;;;11.73;78.88
22753;BME280;11543;43.144;24.684;2023-04-27T02:03:25;98579.44;;;11.69;78.78
22753;BME280;11543;43.144;24.684;2023-04-27T02:05:51;98583.97;;;11.68;78.87
22753;BME280;11543;43.144;24.684;2023-04-27T02:08:16;98575.41;;;11.57;78.62
22753;BME280;11543;43.144;24.684;2023-04-27T02:10:42;98593.22;;;11.58;78.52
22753;BME280;11543;43.144;24.684;2023-04-27T02:13:07;98582.78;;;11.38;78.43
22753;BME280;11543;43.144;24.684;2023-04-27T02:15:34;98583.63;;;11.39;78.54
22753;BME280;11543;43.144;24.684;2023-04-27T02:17:59;98583.81;;;11.37;78.57
22753;BME280;11543;43.144;24.684;2023-04-27T02:20:25;98598.91;;;11.38;78.30
22753;BME280;11543;43.144;24.684;2023-04-27T02:22:51;98590.16;;;11.28;77.79
22753;BME280;11543;43.144;24.684;2023-04-27T02:25:17;98594.81;;;11.18;77.92
22753;BME280;11543;43.144;24.684;2023-04-27T02:27:43;98587.44;;;11.12;77.63
22753;BME280;11543;43.144;24.684;2023-04-27T02:30:10;98604.22;;;11.22;77.66
22753;BME280;11543;43.144;24.684;2023-04-27T02:32:39;98605.91;;;11.23;77.55
22753;BME280;11543;43.144;24.684;2023-04-27T02:35:06;98599.53;;;11.16;77.56
22753;BME280;11543;43.144;24.684;2023-04-27T02:37:32;98595.81;;;11.17;77.28
22753;BME280;11543;43.144;24.684;2023-04-27T02:39:58;98609.56;;;11.06;76.93
22753;BME280;11543;43.144;24.684;2023-04-27T02:42:24;98613.25;;;11.05;76.78
22753;BME280;11543;43.144;24.684;2023-04-27T02:44:49;98606.84;;;10.98;76.89
22753;BME280;11543;43.144;24.684;2023-04-27T02:47:15;98608.88;;;10.96;76.86
22753;BME280;11543;43.144;24.684;2023-04-27T02:49:41;98616.56;;;10.91;76.93
22753;BME280;11543;43.144;24.684;2023-04-27T02:52:06;98611.84;;;10.84;76.76
22753;BME280;11543;43.144;24.684;2023-04-27T02:54:32;98612.34;;;10.80;76.80
22753;BME280;11543;43.144;24.684;2023-04-27T02:56:58;98614.19;;;10.79;77.12
22753;BME280;11543;43.144;24.684;2023-04-27T02:59:24;98615.34;;;10.77;77.46
22753;BME280;11543;43.144;24.684;2023-04-27T03:01:49;98612.81;;;10.75;77.83
22753;BME280;11543;43.144;24.684;2023-04-27T03:04:15;98614.84;;;10.73;78.18
22753;BME280;11543;43.144;24.684;2023-04-27T03:06:42;98618.50;;;10.72;78.22
22753;BME280;11543;43.144;24.684;2023-04-27T03:09:08;98618.31;;;10.66;78.40
22753;BME280;11543;43.144;24.684;2023-04-27T03:11:37;98621.16;;;10.64;78.71
22753;BME280;11543;43.144;24.684;2023-04-27T03:14:02;98615.44;;;10.59;78.52
22753;BME280;11543;43.144;24.684;2023-04-27T03:16:33;98615.09;;;10.54;78.43
22753;BME280;11543;43.144;24.684;2023-04-27T03:18:59;98623.81;;;10.56;78.78
22753;BME280;11543;43.144;24.684;2023-04-27T03:21:24;98622.78;;;10.49;79.00
22753;BME280;11543;43.144;24.684;2023-04-27T03:23:51;98624.44;;;10.50;79.82
22753;BME280;11543;43.144;24.684;2023-04-27T03:26:16;98628.81;;;10.51;80.25
22753;BME280;11543;43.144;24.684;2023-04-27T03:28:43;98632.34;;;10.51;80.49
22753;BME280;11543;43.144;24.684;2023-04-27T03:31:10;98638.38;;;10.53;80.40
22753;BME280;11543;43.144;24.684;2023-04-27T03:33:36;98634.13;;;10.43;80.44
22753;BME280;11543;43.144;24.684;2023-04-27T03:36:02;98641.53;;;10.49;80.58
22753;BME280;11543;43.144;24.684;2023-04-27T03:38:29;98652.59;;;10.46;80.61
22753;BME280;11543;43.144;24.684;2023-04-27T03:40:55;98649.28;;;10.52;80.92
22753;BME280;11543;43.144;24.684;2023-04-27T03:43:22;98645.59;;;10.53;80.55
22753;BME280;11543;43.144;24.684;2023-04-27T03:45:48;98645.59;;;10.53;80.37
22753;BME280;11543;43.144;24.684;2023-04-27T03:48:14;98650.63;;;10.56;80.23
22753;BME280;11543;43.144;24.684;2023-04-27T03:50:41;98646.09;;;10.57;79.91
22753;BME280;11543;43.144;24.684;2023-04-27T03:53:06;98659.72;;;10.63;80.13
22753;BME280;11543;43.144;24.684;2023-04-27T03:55:32;98667.13;;;10.69;80.04
22753;BME280;11543;43.144;24.684;2023-04-27T03:57:58;98650.19;;;10.69;79.98
22753;BME280;11543;43.144;24.684;2023-04-27T04:00:23;98662.16;;;10.82;79.36
22753;BME280;11543;43.144;24.684;2023-04-27T04:02:49;98658.78;;;10.80;79.14
22753;BME280;11543;43.144;24.684;2023-04-27T04:05:17;98660.63;;;10.80;78.33
22753;BME280;11543;43.144;24.684;2023-04-27T04:07:43;98667.84;;;10.79;77.91
22753;BME280;11543;43.144;24.684;2023-04-27T04:10:09;98674.25;;;10.87;77.70
22753;BME280;11543;43.144;24.684;2023-04-27T04:12:35;98682.34;;;10.95;77.51
22753;BME280;11543;43.144;24.684;2023-04-27T04:15:04;98682.34;;;10.95;77.40
22753;BME280;11543;43.144;24.684;2023-04-27T04:17:30;98674.44;;;10.93;77.02
22753;BME280;11543;43.144;24.684;2023-04-27T04:19:55;98689.06;;;10.99;76.45
22753;BME280;11543;43.144;24.684;2023-04-27T04:22:21;98684.66;;;10.90;75.71
22753;BME280;11543;43.144;24.684;2023-04-27T04:24:46;98687.72;;;10.95;75.39
22753;BME280;11543;43.144;24.684;2023-04-27T04:27:12;98677.63;;;10.89;75.04
22753;BME280;11543;43.144;24.684;2023-04-27T04:29:38;98685.03;;;10.95;74.66
22753;BME280;11543;43.144;24.684;2023-04-27T04:32:03;98684.03;;;10.96;74.67
22753;BME280;11543;43.144;24.684;2023-04-27T04:34:29;98685.31;;;10.83;73.57
22753;BME280;11543;43.144;24.684;2023-04-27T04:36:55;98687.19;;;10.91;73.24
22753;BME280;11543;43.144;24.684;2023-04-27T04:39:21;98695.75;;;10.95;73.26
22753;BME280;11543;43.144;24.684;2023-04-27T04:41:48;98703.97;;;10.93;72.75
22753;BME280;11543;43.144;24.684;2023-04-27T04:44:14;98693.19;;;10.85;72.31
22753;BME280;11543;43.144;24.684;2023-04-27T04:46:41;98694.03;;;10.85;71.96
22753;BME280;11543;43.144;24.684;2023-04-27T04:49:06;98703.63;;;10.88;72.13
22753;BME280;11543;43.144;24.684;2023-04-27T04:51:32;98712.88;;;10.94;72.26
22753;BME280;11543;43.144;24.684;2023-04-27T04:53:58;98711.81;;;10.87;71.84
22753;BME280;11543;43.144;24.684;2023-04-27T04:56:23;98705.81;;;10.93;72.11
22753;BME280;11543;43.144;24.684;2023-04-27T04:58:48;98700.84;;;11.06;72.42
22753;BME280;11543;43.144;24.684;2023-04-27T05:01:14;98717.84;;;11.23;72.76
22753;BME280;11543;43.144;24.684;2023-04-27T05:03:40;98716.06;;;11.31;72.70
22753;BME280;11543;43.144;24.684;2023-04-27T05:06:05;98711.56;;;11.40;72.17
22753;BME280;11543;43.144;24.684;2023-04-27T05:08:31;98726.19;;;11.54;72.18
22753;BME280;11543;43.144;24.684;2023-04-27T05:10:56;98715.47;;;11.54;71.77
22753;BME280;11543;43.144;24.684;2023-04-27T05:13:22;98726.56;;;11.67;71.74
22753;BME280;11543;43.144;24.684;2023-04-27T05:15:51;98724.06;;;11.73;71.22
22753;BME280;11543;43.144;24.684;2023-04-27T05:18:17;98730.66;;;11.79;70.68
22753;BME280;11543;43.144;24.684;2023-04-27T05:20:42;98721.25;;;11.83;70.13
22753;BME280;11543;43.144;24.684;2023-04-27T05:23:08;98723.28;;;11.89;70.04
22753;BME280;11543;43.144;24.684;2023-04-27T05:25:34;98737.41;;;11.99;69.63
22753;BME280;11543;43.144;24.684;2023-04-27T05:28:05;98732.03;;;11.99;68.82
22753;BME280;11543;43.144;24.684;2023-04-27T05:30:31;98727.97;;;11.87;67.35
22753;BME280;11543;43.144;24.684;2023-04-27T05:32:56;98728.66;;;11.89;67.54
22753;BME280;11543;43.144;24.684;2023-04-27T05:35:22;98730.34;;;11.98;68.03
22753;BME280;11543;43.144;24.684;2023-04-27T05:37:47;98723.94;;;11.99;67.97
22753;BME280;11543;43.144;24.684;2023-04-27T05:40:14;98744.78;;;12.05;68.06
22753;BME280;11543;43.144;24.684;2023-04-27T05:42:39;98733.38;;;12.03;67.79
22753;BME280;11543;43.144;24.684;2023-04-27T05:45:05;98730.00;;;12.01;67.63
22753;BME280;11543;43.144;24.684;2023-04-27T05:47:31;98739.09;;;12.00;67.57
22753;BME280;11543;43.144;24.684;2023-04-27T05:49:57;98738.72;;;11.87;66.78
22753;BME280;11543;43.144;24.684;2023-04-27T05:52:22;98744.78;;;11.81;66.98
22753;BME280;11543;43.144;24.684;2023-04-27T05:54:53;98736.63;;;11.57;66.55
22753;BME280;11543;43.144;24.684;2023-04-27T05:57:19;98744.00;;;11.55;67.93
22753;BME280;11543;43.144;24.684;2023-04-27T05:59:44;98745.00;;;11.45;67.72
22753;BME280;11543;43.144;24.684;2023-04-27T06:02:10;98748.69;;;11.44;66.65
22753;BME280;11543;43.144;24.684;2023-04-27T06:04:36;98749.50;;;11.37;67.33
22753;BME280;11543;43.144;24.684;2023-04-27T06:07:06;98756.94;;;11.51;68.13
22753;BME280;11543;43.144;24.684;2023-04-27T06:09:33;98754.69;;;11.38;67.47
22753;BME280;11543;43.144;24.684;2023-04-27T06:11:59;98735.19;;;11.28;66.73
22753;BME280;11543;43.144;24.684;2023-04-27T06:14:24;98744.94;;;11.29;68.19
22753;BME280;11543;43.144;24.684;2023-04-27T06:16:50;98751.69;;;11.41;68.70
22753;BME280;11543;43.144;24.684;2023-04-27T06:19:15;98739.81;;;11.52;68.72
22753;BME280;11543;43.144;24.684;2023-04-27T06:21:41;98753.28;;;11.76;67.13
22753;BME280;11543;43.144;24.684;2023-04-27T06:24:06;98746.13;;;11.85;67.19
22753;BME280;11543;43.144;24.684;2023-04-27T06:26:32;98755.88;;;11.94;69.05
22753;BME280;11543;43.144;24.684;2023-04-27T06:28:58;98742.78;;;11.99;68.30
22753;BME280;11543;43.144;24.684;2023-04-27T06:31:24;98756.25;;;12.32;65.65
22753;BME280;11543;43.144;24.684;2023-04-27T06:33:50;98744.50;;;12.33;66.12
22753;BME280;11543;43.144;24.684;2023-04-27T06:36:15;98746.84;;;12.44;67.29
22753;BME280;11543;43.144;24.684;2023-04-27T06:38:41;98747.66;;;12.61;67.13
22753;BME280;11543;43.144;24.684;2023-04-27T06:41:06;98755.88;;;12.75;67.00
22753;BME280;11543;43.144;24.684;2023-04-27T06:43:32;98751.16;;;12.77;64.75
22753;BME280;11543;43.144;24.684;2023-04-27T06:45:57;98740.59;;;12.60;66.00
22753;BME280;11543;43.144;24.684;2023-04-27T06:48:23;98749.69;;;12.67;63.79
22753;BME280;11543;43.144;24.684;2023-04-27T06:50:48;98743.09;;;12.77;64.95
22753;BME280;11543;43.144;24.684;2023-04-27T06:53:14;98757.91;;;12.73;63.32
22753;BME280;11543;43.144;24.684;2023-04-27T06:55:41;98758.59;;;12.59;63.10
22753;BME280;11543;43.144;24.684;2023-04-27T06:58:07;98760.94;;;12.79;63.97
22753;BME280;11543;43.144;24.684;2023-04-27T07:00:33;98760.94;;;12.79;63.08
22753;BME280;11543;43.144;24.684;2023-04-27T07:02:58;98769.34;;;12.75;62.63
22753;BME280;11543;43.144;24.684;2023-04-27T07:05:24;98760.78;;;12.72;62.66
22753;BME280;11543;43.144;24.684;2023-04-27T07:07:51;98767.66;;;12.83;63.12
22753;BME280;11543;43.144;24.684;2023-04-27T07:10:17;98764.28;;;12.81;62.08
22753;BME280;11543;43.144;24.684;2023-04-27T07:12:42;98754.84;;;12.85;61.45
22753;BME280;11543;43.144;24.684;2023-04-27T07:15:08;98765.09;;;12.97;62.23
22753;BME280;11543;43.144;24.684;2023-04-27T07:17:34;98762.56;;;12.96;60.13
22753;BME280;11543;43.144;24.684;2023-04-27T07:20:00;98758.19;;;13.19;59.84
22753;BME280;11543;43.144;24.684;2023-04-27T07:22:26;98772.94;;;13.31;59.92
22753;BME280;11543;43.144;24.684;2023-04-27T07:24:53;98770.53;;;13.45;60.23
22753;BME280;11543;43.144;24.684;2023-04-27T07:27:18;98764.56;;;13.26;59.61
22753;BME280;11543;43.144;24.684;2023-04-27T07:29:44;98759.44;;;13.39;60.07
22753;BME280;11543;43.144;24.684;2023-04-27T07:32:10;98750.84;;;13.44;59.87
22753;BME280;11543;43.144;24.684;2023-04-27T07:34:35;98769.09;;;13.65;61.09
22753;BME280;11543;43.144;24.684;2023-04-27T07:37:01;98769.44;;;13.62;60.33
22753;BME280;11543;43.144;24.684;2023-04-27T07:39:27;98763.84;;;13.71;61.08
22753;BME280;11543;43.144;24.684;2023-04-27T07:41:53;98777.41;;;13.86;62.74
22753;BME280;11543;43.144;24.684;2023-04-27T07:44:19;98776.72;;;13.92;61.49
22753;BME280;11543;43.144;24.684;2023-04-27T07:46:46;98759.34;;;14.18;58.72
22753;BME280;11543;43.144;24.684;2023-04-27T07:49:16;98766.53;;;14.25;57.74
22753;BME280;11543;43.144;24.684;2023-04-27T07:51:41;98768.69;;;14.30;57.78
22753;BME280;11543;43.144;24.684;2023-04-27T07:54:07;98766.66;;;14.32;59.73
22753;BME280;11543;43.144;24.684;2023-04-27T07:56:33;98764.13;;;14.30;59.72
22753;BME280;11543;43.144;24.684;2023-04-27T07:58:58;98762.56;;;14.36;57.49
22753;BME280;11543;43.144;24.684;2023-04-27T08:01:24;98770.75;;;14.28;58.28
22753;BME280;11543;43.144;24.684;2023-04-27T08:03:49;98765.88;;;14.23;58.16
22753;BME280;11543;43.144;24.684;2023-04-27T08:06:17;98771.31;;;14.38;57.16
22753;BME280;11543;43.144;24.684;2023-04-27T08:08:42;98764.63;;;14.34;58.24
22753;BME280;11543;43.144;24.684;2023-04-27T08:11:11;98774.94;;;14.30;58.48
22753;BME280;11543;43.144;24.684;2023-04-27T08:13:39;98783.34;;;14.13;59.06
22753;BME280;11543;43.144;24.684;2023-04-27T08:16:04;98765.47;;;14.12;58.71
22753;BME280;11543;43.144;24.684;2023-04-27T08:18:30;98772.13;;;14.24;58.68
22753;BME280;11543;43.144;24.684;2023-04-27T08:20:55;98753.47;;;14.37;59.21
22753;BME280;11543;43.144;24.684;2023-04-27T08:23:21;98757.06;;;14.52;58.41
22753;BME280;11543;43.144;24.684;2023-04-27T08:25:48;98757.66;;;14.62;56.78
22753;BME280;11543;43.144;24.684;2023-04-27T08:28:14;98766.41;;;14.64;57.06
22753;BME280;11543;43.144;24.684;2023-04-27T08:30:41;98754.22;;;14.69;57.71
22753;BME280;11543;43.144;24.684;2023-04-27T08:33:07;98754.78;;;14.64;56.32
22753;BME280;11543;43.144;24.684;2023-04-27T08:35:33;98757.88;;;14.76;54.68
22753;BME280;11543;43.144;24.684;2023-04-27T08:37:58;98757.56;;;14.71;55.42
22753;BME280;11543;43.144;24.684;2023-04-27T08:40:24;98753.34;;;14.53;54.79
22753;BME280;11543;43.144;24.684;2023-04-27T08:42:57;98746.84;;;14.62;57.02
22753;BME280;11543;43.144;24.684;2023-04-27T08:45:27;98730.47;;;14.64;56.23
22753;BME280;11543;43.144;24.684;2023-04-27T08:47:53;98747.09;;;14.90;57.95
22753;BME280;11543;43.144;24.684;2023-04-27T08:50:18;98740.50;;;14.93;54.62
22753;BME280;11543;43.144;24.684;2023-04-27T08:52:45;98756.44;;;15.17;54.81
22753;BME280;11543;43.144;24.684;2023-04-27T08:55:11;98749.44;;;15.23;55.59
22753;BME280;11543;43.144;24.684;2023-04-27T08:57:37;98738.63;;;15.23;55.93
22753;BME280;11543;43.144;24.684;2023-04-27T09:00:04;98738.16;;;15.19;56.35
22753;BME280;11543;43.144;24.684;2023-04-27T09:02:47;98746.16;;;15.27;56.80
22753;BME280;11543;43.144;24.684;2023-04-27T09:05:20;98743.75;;;15.33;54.82
22753;BME280;11543;43.144;24.684;2023-04-27T09:08:02;98746.88;;;15.51;55.34
22753;BME280;11543;43.144;24.684;2023-04-27T09:10:45;98743.00;;;15.68;57.36
22753;BME280;11543;43.144;24.684;2023-04-27T09:13:11;98744.28;;;15.72;52.57
22753;BME280;11543;43.144;24.684;2023-04-27T09:15:45;98742.91;;;15.98;53.62
22753;BME280;11543;43.144;24.684;2023-04-27T09:18:15;98733.75;;;15.99;55.77
22753;BME280;11543;43.144;24.684;2023-04-27T09:20:45;98745.50;;;16.06;52.85
22753;BME280;11543;43.144;24.684;2023-04-27T09:23:27;98733.78;;;16.20;53.39
22753;BME280;11543;43.144;24.684;2023-04-27T09:25:57;98729.25;;;16.06;52.23
22753;BME280;11543;43.144;24.684;2023-04-27T09:28:27;98733.00;;;16.05;51.75
22753;BME280;11543;43.144;24.684;2023-04-27T09:30:57;98718.38;;;15.99;51.28
22753;BME280;11543;43.144;24.684;2023-04-27T09:33:24;98733.13;;;16.18;53.26
22753;BME280;11543;43.144;24.684;2023-04-27T09:35:51;98724.22;;;16.24;51.64
22753;BME280;11543;43.144;24.684;2023-04-27T09:38:20;98727.72;;;16.18;51.39
22753;BME280;11543;43.144;24.684;2023-04-27T09:40:47;98721.00;;;16.35;52.97
22753;BME280;11543;43.144;24.684;2023-04-27T09:43:13;98717.69;;;16.40;53.25
22753;BME280;11543;43.144;24.684;2023-04-27T09:45:39;98726.16;;;16.30;51.32
22753;BME280;11543;43.144;24.684;2023-04-27T09:48:06;98716.56;;;16.28;51.37
22753;BME280;11543;43.144;24.684;2023-04-27T09:50:36;98709.53;;;16.33;50.22
22753;BME280;11543;43.144;24.684;2023-04-27T09:53:05;98708.50;;;16.34;50.94
22753;BME280;11543;43.144;24.684;2023-04-27T09:55:35;98709.53;;;16.33;52.89
22753;BME280;11543;43.144;24.684;2023-04-27T10:01:03;98701.69;;;15.96;51.86
22753;BME280;11543;43.144;24.684;2023-04-27T10:04:12;98703.34;;;15.97;53.83
22753;BME280;11543;43.144;24.684;2023-04-27T10:06:57;98702.19;;;16.06;53.75
22753;BME280;11543;43.144;24.684;2023-04-27T10:09:24;98691.50;;;15.98;52.42
22753;BME280;11543;43.144;24.684;2023-04-27T10:11:51;98695.25;;;15.97;53.15
22753;BME280;11543;43.144;24.684;2023-04-27T10:14:22;98701.16;;;15.85;51.92
22753;BME280;11543;43.144;24.684;2023-04-27T10:16:56;98708.56;;;15.77;53.33
22753;BME280;11543;43.144;24.684;2023-04-27T10:19:23;98694.97;;;15.70;52.92
22753;BME280;11543;43.144;24.684;2023-04-27T10:21:59;98704.44;;;15.81;52.60
22753;BME280;11543;43.144;24.684;2023-04-27T10:24:39;98704.75;;;15.71;54.06
22753;BME280;11543;43.144;24.684;2023-04-27T10:27:10;98695.72;;;15.64;53.85
22753;BME280;11543;43.144;24.684;2023-04-27T10:29:41;98702.03;;;15.56;54.78
22753;BME280;11543;43.144;24.684;2023-04-27T10:34:33;98701.94;;;15.79;52.60
22753;BME280;11543;43.144;24.684;2023-04-27T10:37:09;98705.66;;;15.78;51.97
22753;BME280;11543;43.144;24.684;2023-04-27T10:39:43;98700.25;;;15.78;52.88
22753;BME280;11543;43.144;24.684;2023-04-27T10:42:09;98698.97;;;15.74;52.19
22753;BME280;11543;43.144;24.684;2023-04-27T10:44:36;98706.16;;;15.52;53.11
22753;BME280;11543;43.144;24.684;2023-04-27T10:47:38;98704.88;;;15.63;51.83
22753;BME280;11543;43.144;24.684;2023-04-27T10:50:04;98701.41;;;15.69;52.30
22753;BME280;11543;43.144;24.684;2023-04-27T10:52:30;98694.31;;;15.68;52.84
22753;BME280;11543;43.144;24.684;2023-04-27T10:54:56;98702.81;;;15.65;54.18
22753;BME280;11543;43.144;24.684;2023-04-27T10:57:22;98701.94;;;15.50;53.42
22753;BME280;11543;43.144;24.684;2023-04-27T10:59:52;98702.88;;;15.57;54.18
22753;BME280;11543;43.144;24.684;2023-04-27T11:02:27;98706.09;;;15.60;54.37
22753;BME280;11543;43.144;24.684;2023-04-27T11:04:54;98704.63;;;15.79;54.57
22753;BME280;11543;43.144;24.684;2023-04-27T11:07:27;98704.00;;;15.77;54.52
22753;BME280;11543;43.144;24.684;2023-04-27T11:09:53;98706.97;;;15.82;54.31
22753;BME280;11543;43.144;24.684;2023-04-27T11:12:20;98703.34;;;15.97;52.65
22753;BME280;11543;43.144;24.684;2023-04-27T11:14:45;98705.41;;;15.95;54.23
22753;BME280;11543;43.144;24.684;2023-04-27T11:17:12;98693.81;;;15.79;52.57
22753;BME280;11543;43.144;24.684;2023-04-27T11:19:44;98703.06;;;15.70;53.11
22753;BME280;11543;43.144;24.684;2023-04-27T11:22:12;98706.03;;;15.75;53.08
22753;BME280;11543;43.144;24.684;2023-04-27T11:24:51;98707.97;;;15.81;54.75
22753;BME280;11543;43.144;24.684;2023-04-27T11:27:17;98713.97;;;15.77;54.19
22753;BME280;11543;43.144;24.684;2023-04-27T11:29:42;98709.09;;;15.87;53.47
22753;BME280;11543;43.144;24.684;2023-04-27T11:32:17;98705.88;;;15.98;53.53
22753;BME280;11543;43.144;24.684;2023-04-27T11:34:52;98710.25;;;16.20;54.17
22753;BME280;11543;43.144;24.684;2023-04-27T11:37:25;98709.91;;;16.30;50.85
22753;BME280;11543;43.144;24.684;2023-04-27T11:39:52;98698.25;;;16.30;50.12
22753;BME280;11543;43.144;24.684;2023-04-27T11:42:22;98698.56;;;16.41;50.49
22753;BME280;11543;43.144;24.684;2023-04-27T11:45:01;98691.25;;;16.42;49.41
22753;BME280;11543;43.144;24.684;2023-04-27T11:47:30;98694.81;;;16.42;50.04
22753;BME280;11543;43.144;24.684;2023-04-27T11:50:01;98699.47;;;16.70;50.53
22753;BME280;11543;43.144;24.684;2023-04-27T11:52:32;98700.22;;;16.64;51.81
22753;BME280;11543;43.144;24.684;2023-04-27T11:54:59;98697.69;;;16.62;52.58
22753;BME280;11543;43.144;24.684;2023-04-27T11:57:33;98696.84;;;16.83;52.16
22753;BME280;11543;43.144;24.684;2023-04-27T12:00:00;98701.22;;;16.84;52.33
22753;BME280;11543;43.144;24.684;2023-04-27T12:02:27;98711.19;;;16.77;52.14
22753;BME280;11543;43.144;24.684;2023-04-27T12:04:53;98702.41;;;16.75;50.63
22753;BME280;11543;43.144;24.684;2023-04-27T12:07:19;98707.13;;;16.94;49.93
22753;BME280;11543;43.144;24.684;2023-04-27T12:09:44;98713.97;;;16.90;49.48
22753;BME280;11543;43.144;24.684;2023-04-27T12:12:11;98698.06;;;17.15;50.82
22753;BME280;11543;43.144;24.684;2023-04-27T12:14:43;98697.25;;;17.21;46.97
22753;BME280;11543;43.144;24.684;2023-04-27T12:17:09;98702.31;;;17.31;48.06
22753;BME280;11543;43.144;24.684;2023-04-27T12:19:35;98709.50;;;17.45;49.28
22753;BME280;11543;43.144;24.684;2023-04-27T12:22:01;98711.56;;;17.43;48.69
22753;BME280;11543;43.144;24.684;2023-04-27T12:24:27;98701.13;;;17.40;49.43
22753;BME280;11543;43.144;24.684;2023-04-27T12:26:52;98692.75;;;17.35;49.35
22753;BME280;11543;43.144;24.684;2023-04-27T12:29:18;98696.88;;;17.31;49.92
22753;BME280;11543;43.144;24.684;2023-04-27T12:31:43;98696.47;;;17.34;48.96
22753;BME280;11543;43.144;24.684;2023-04-27T12:34:09;98688.53;;;17.26;48.48
22753;BME280;11543;43.144;24.684;2023-04-27T12:36:34;98699.38;;;17.26;49.57
22753;BME280;11543;43.144;24.684;2023-04-27T12:39:15;98705.66;;;17.33;50.76
22753;BME280;11543;43.144;24.684;2023-04-27T12:41:42;98692.03;;;17.19;51.82
22753;BME280;11543;43.144;24.684;2023-04-27T12:44:07;98689.94;;;17.15;53.22
22753;BME280;11543;43.144;24.684;2023-04-27T12:46:33;98690.13;;;17.13;53.57
22753;BME280;11543;43.144;24.684;2023-04-27T12:48:58;98696.66;;;16.91;51.76
22753;BME280;11543;43.144;24.684;2023-04-27T12:51:24;98694.53;;;16.80;52.69
22753;BME280;11543;43.144;24.684;2023-04-27T12:53:52;98699.94;;;16.80;53.41
22753;BME280;11543;43.144;24.684;2023-04-27T12:56:17;98689.50;;;16.77;52.27